Time;durP1;ratioP1;P1;durP2;ratioP2;P2;SDS_P1;SDS_P2;PMS_P1;PMS_P2;Temp;Humidity;BMP_temperature;BMP_pressure;BME280_temperature;BME280_humidity;BME280_pressure;Samples;Min_cycle;Max_cycle;Signal;HPM_P1;HPM_P2
2023/01/22 00:00:32;;;;;;;25.15;14.82;;;;;;;;;;5063970;28;20136;-68
2023/01/22 00:02:58;;;;;;;25.25;14.45;;;;;;;;;;5052677;28;20416;-67
2023/01/22 00:05:24;;;;;;;20.83;13.30;;;;;;;;;;5069814;28;20057;-66
2023/01/22 00:07:51;;;;;;;22.70;12.63;;;;;;;;;;5065161;28;20345;-68
2023/01/22 00:10:17;;;;;;;21.80;13.52;;;;;;;;;;5066307;28;20059;-66
2023/01/22 00:12:44;;;;;;;23.90;14.13;;;;;;;;;;5072640;28;20052;-68
2023/01/22 00:15:10;;;;;;;22.58;12.68;;;;;;;;;;5072497;28;20049;-69
2023/01/22 00:17:37;;;;;;;23.70;13.13;;;;;;;;;;5069579;28;20148;-68
2023/01/22 00:20:05;;;;;;;20.70;12.45;;;;;;;;;;5059588;28;20515;-67
2023/01/22 00:22:31;;;;;;;27.27;14.27;;;;;;;;;;5078687;28;20055;-67
2023/01/22 00:24:57;;;;;;;23.40;12.95;;;;;;;;;;5067514;28;20060;-66
2023/01/22 00:27:24;;;;;;;27.85;14.85;;;;;;;;;;5074163;28;20059;-69
2023/01/22 00:29:50;;;;;;;23.85;13.85;;;;;;;;;;5069267;28;20087;-68
2023/01/22 00:32:16;;;;;;;21.45;13.07;;;;;;;;;;5079944;28;20060;-67
2023/01/22 00:34:49;;;;;;;22.38;13.98;;;;;;;;;;5060383;28;20515;-69
2023/01/22 00:37:15;;;;;;;22.77;14.02;;;;;;;;;;5069133;28;20506;-67
2023/01/22 00:39:42;;;;;;;21.63;12.82;;;;;;;;;;5066145;28;20107;-68
2023/01/22 00:42:08;;;;;;;22.23;14.32;;;;;;;;;;5070196;28;20092;-68
2023/01/22 00:44:34;;;;;;;22.70;13.02;;;;;;;;;;5067035;28;20057;-67
2023/01/22 00:47:00;;;;;;;23.02;12.80;;;;;;;;;;5059803;28;20132;-68
2023/01/22 00:49:27;;;;;;;28.67;14.30;;;;;;;;;;5070199;28;20152;-67
2023/01/22 00:51:53;;;;;;;19.63;12.75;;;;;;;;;;5066412;28;20059;-68
2023/01/22 00:54:19;;;;;;;21.83;13.65;;;;;;;;;;5076297;28;20822;-68
2023/01/22 00:56:46;;;;;;;21.05;12.77;;;;;;;;;;5063424;28;20063;-71
2023/01/22 00:59:12;;;;;;;24.95;13.05;;;;;;;;;;5085342;28;20540;-65
2023/01/22 01:01:38;;;;;;;21.55;13.13;;;;;;;;;;5064034;28;20096;-68
2023/01/22 01:04:05;;;;;;;21.90;13.63;;;;;;;;;;5055587;28;20083;-68
2023/01/22 01:06:31;;;;;;;24.17;13.57;;;;;;;;;;5062959;28;20045;-66
2023/01/22 01:08:58;;;;;;;21.98;13.52;;;;;;;;;;5066006;28;20100;-68
2023/01/22 01:11:25;;;;;;;21.17;13.23;;;;;;;;;;5068689;28;20048;-68
2023/01/22 01:13:51;;;;;;;22.45;12.90;;;;;;;;;;5071108;28;20590;-67
2023/01/22 01:16:22;;;;;;;22.17;13.52;;;;;;;;;;5074944;28;20065;-66
2023/01/22 01:18:49;;;;;;;21.90;13.40;;;;;;;;;;5080061;28;20091;-68
2023/01/22 01:21:16;;;;;;;21.00;13.13;;;;;;;;;;5076053;28;22010;-68
2023/01/22 01:23:42;;;;;;;18.02;12.32;;;;;;;;;;5084872;28;20499;-68
2023/01/22 01:26:10;;;;;;;20.40;12.75;;;;;;;;;;5081081;28;20049;-68
2023/01/22 01:28:37;;;;;;;17.92;11.45;;;;;;;;;;5083077;28;20052;-68
2023/01/22 01:31:05;;;;;;;24.08;13.60;;;;;;;;;;5071184;28;20064;-67
2023/01/22 01:33:31;;;;;;;20.27;12.20;;;;;;;;;;5053766;28;20050;-68
2023/01/22 01:35:58;;;;;;;20.08;12.27;;;;;;;;;;5073943;28;20048;-67
2023/01/22 01:38:25;;;;;;;20.33;12.63;;;;;;;;;;5072214;28;20057;-67
2023/01/22 01:40:51;;;;;;;24.60;12.15;;;;;;;;;;5068255;28;20053;-68
2023/01/22 01:43:17;;;;;;;18.70;12.05;;;;;;;;;;5066162;28;20095;-66
2023/01/22 01:45:44;;;;;;;17.63;11.73;;;;;;;;;;5082213;28;20051;-68
2023/01/22 01:48:22;;;;;;;20.33;12.57;;;;;;;;;;5075552;28;20055;-68
2023/01/22 01:51:07;;;;;;;19.63;11.30;;;;;;;;;;5057122;28;20057;-68
2023/01/22 01:53:33;;;;;;;20.50;11.63;;;;;;;;;;5076313;28;20076;-67
2023/01/22 01:56:01;;;;;;;17.50;10.63;;;;;;;;;;5081109;28;20063;-68
2023/01/22 01:58:29;;;;;;;20.13;10.35;;;;;;;;;;5055767;28;20542;-68
2023/01/22 02:00:58;;;;;;;17.70;10.27;;;;;;;;;;5082580;28;20106;-67
2023/01/22 02:03:25;;;;;;;17.58;10.93;;;;;;;;;;5060737;28;20506;-68
2023/01/22 02:05:52;;;;;;;18.42;11.50;;;;;;;;;;5067564;28;20132;-68
2023/01/22 02:08:18;;;;;;;16.98;9.93;;;;;;;;;;5074313;28;20591;-67
2023/01/22 02:10:45;;;;;;;17.58;10.80;;;;;;;;;;5067405;28;20057;-67
2023/01/22 02:13:15;;;;;;;19.80;10.48;;;;;;;;;;5077125;28;20053;-68
2023/01/22 02:15:42;;;;;;;15.95;9.80;;;;;;;;;;5077639;28;20051;-66
2023/01/22 02:18:08;;;;;;;17.48;10.48;;;;;;;;;;5081380;28;20534;-70
2023/01/22 02:20:35;;;;;;;18.58;10.13;;;;;;;;;;5066226;28;20080;-67
2023/01/22 02:23:02;;;;;;;15.45;9.82;;;;;;;;;;5053185;28;20101;-68
2023/01/22 02:25:28;;;;;;;19.42;10.48;;;;;;;;;;5063550;28;20052;-68
2023/01/22 02:27:54;;;;;;;17.13;10.65;;;;;;;;;;5062613;28;20473;-69
2023/01/22 02:30:21;;;;;;;16.98;10.43;;;;;;;;;;5072195;28;20049;-68
2023/01/22 02:32:47;;;;;;;15.82;9.40;;;;;;;;;;5084382;28;20053;-67
2023/01/22 02:35:13;;;;;;;13.95;9.65;;;;;;;;;;5086795;28;20052;-68
2023/01/22 02:37:40;;;;;;;17.10;9.50;;;;;;;;;;5077119;28;20762;-65
2023/01/22 02:40:06;;;;;;;15.63;9.55;;;;;;;;;;5077141;28;20402;-68
2023/01/22 02:42:32;;;;;;;16.95;10.77;;;;;;;;;;5061283;28;20053;-68
2023/01/22 02:44:59;;;;;;;18.55;10.07;;;;;;;;;;5081377;28;20537;-67
2023/01/22 02:47:25;;;;;;;16.08;9.15;;;;;;;;;;5077810;28;20562;-68
2023/01/22 02:49:51;;;;;;;18.75;9.38;;;;;;;;;;5083388;28;20098;-68
2023/01/22 02:52:18;;;;;;;16.33;9.88;;;;;;;;;;5056043;28;20076;-69
2023/01/22 02:54:44;;;;;;;16.13;9.73;;;;;;;;;;5069645;28;20431;-68
2023/01/22 02:57:10;;;;;;;12.73;8.68;;;;;;;;;;5061104;28;20061;-67
2023/01/22 02:59:37;;;;;;;16.15;10.02;;;;;;;;;;5070114;28;20061;-68
2023/01/22 03:02:03;;;;;;;18.33;10.30;;;;;;;;;;5062997;28;20049;-67
2023/01/22 03:04:29;;;;;;;18.75;9.57;;;;;;;;;;5066079;28;20181;-69
2023/01/22 03:06:56;;;;;;;14.35;9.38;;;;;;;;;;5055981;28;20056;-68
2023/01/22 03:09:22;;;;;;;15.40;8.77;;;;;;;;;;5082838;28;20045;-68
2023/01/22 03:11:48;;;;;;;15.95;8.93;;;;;;;;;;5075043;28;20053;-68
2023/01/22 03:22:30;;;;;;;12.65;8.60;;;;;;;;;;5066244;28;20050;-68
2023/01/22 03:24:57;;;;;;;16.15;8.55;;;;;;;;;;5059998;28;20048;-69
2023/01/22 03:27:24;;;;;;;19.58;10.02;;;;;;;;;;5068759;28;20132;-67
2023/01/22 03:29:51;;;;;;;15.40;8.63;;;;;;;;;;5070422;28;20127;-68
2023/01/22 03:32:18;;;;;;;15.18;8.68;;;;;;;;;;5063245;28;20080;-68
2023/01/22 03:34:44;;;;;;;15.73;9.13;;;;;;;;;;5077575;28;20061;-67
2023/01/22 03:37:11;;;;;;;14.80;9.05;;;;;;;;;;5076302;28;20058;-67
2023/01/22 03:39:39;;;;;;;16.05;9.07;;;;;;;;;;5080813;28;20064;-67
2023/01/22 03:42:05;;;;;;;14.80;8.88;;;;;;;;;;5076510;28;20530;-67
2023/01/22 03:44:32;;;;;;;15.95;9.70;;;;;;;;;;5076982;28;20052;-68
2023/01/22 03:46:58;;;;;;;16.05;7.80;;;;;;;;;;5064058;28;20095;-68
2023/01/22 03:49:24;;;;;;;13.13;8.40;;;;;;;;;;5060541;28;20057;-68
2023/01/22 03:51:51;;;;;;;19.02;8.93;;;;;;;;;;5055948;28;20055;-67
2023/01/22 03:54:17;;;;;;;15.40;8.93;;;;;;;;;;5076447;28;20569;-68
2023/01/22 03:56:43;;;;;;;19.40;9.25;;;;;;;;;;5075577;28;20064;-67
2023/01/22 03:59:10;;;;;;;15.15;8.77;;;;;;;;;;5066161;28;20048;-68
2023/01/22 04:01:36;;;;;;;14.57;8.02;;;;;;;;;;5048076;28;20045;-68
2023/01/22 04:04:03;;;;;;;13.57;8.18;;;;;;;;;;5073384;28;20083;-68
2023/01/22 04:06:29;;;;;;;17.45;9.10;;;;;;;;;;5055283;28;20085;-69
2023/01/22 04:08:56;;;;;;;16.55;8.90;;;;;;;;;;5076998;28;20056;-69
2023/01/22 04:11:22;;;;;;;15.88;8.02;;;;;;;;;;5071337;28;20066;-68
2023/01/22 04:13:49;;;;;;;13.98;8.70;;;;;;;;;;5079442;28;20060;-68
2023/01/22 04:16:15;;;;;;;12.82;8.43;;;;;;;;;;5077943;28;20045;-68
2023/01/22 04:18:42;;;;;;;14.82;9.63;;;;;;;;;;5078580;28;20059;-68
2023/01/22 04:21:08;;;;;;;13.63;8.70;;;;;;;;;;5080943;28;20045;-66
2023/01/22 04:23:34;;;;;;;17.27;9.30;;;;;;;;;;5074804;28;20056;-69
2023/01/22 04:26:01;;;;;;;14.77;9.20;;;;;;;;;;5067161;28;20045;-67
2023/01/22 04:28:27;;;;;;;15.60;8.88;;;;;;;;;;5075269;28;20132;-68
2023/01/22 04:30:54;;;;;;;16.15;9.23;;;;;;;;;;5070949;28;20787;-68
2023/01/22 04:33:20;;;;;;;14.40;8.82;;;;;;;;;;5071146;28;20132;-68
2023/01/22 04:35:50;;;;;;;17.88;8.93;;;;;;;;;;5072469;28;20053;-66
2023/01/22 04:38:17;;;;;;;15.52;8.85;;;;;;;;;;5076276;28;20049;-66
2023/01/22 04:40:43;;;;;;;15.70;8.80;;;;;;;;;;5079876;28;20054;-69
2023/01/22 04:43:10;;;;;;;15.48;8.43;;;;;;;;;;5074020;28;20151;-67
2023/01/22 04:45:36;;;;;;;19.48;9.07;;;;;;;;;;5071200;28;20513;-66
2023/01/22 04:48:03;;;;;;;16.42;9.65;;;;;;;;;;5059387;28;20050;-68
2023/01/22 04:50:30;;;;;;;18.05;9.07;;;;;;;;;;5069668;28;20056;-67
2023/01/22 04:52:56;;;;;;;20.00;9.75;;;;;;;;;;5069481;28;20106;-66
2023/01/22 04:55:23;;;;;;;15.95;9.73;;;;;;;;;;5083019;28;20060;-69
2023/01/22 04:57:52;;;;;;;18.30;9.73;;;;;;;;;;5076124;28;20048;-68
2023/01/22 05:00:18;;;;;;;17.20;10.25;;;;;;;;;;5070368;28;20469;-68
2023/01/22 05:02:45;;;;;;;17.00;10.07;;;;;;;;;;5079695;28;20074;-68
2023/01/22 05:05:12;;;;;;;16.23;9.57;;;;;;;;;;5076185;28;20060;-69
2023/01/22 05:07:38;;;;;;;16.83;9.27;;;;;;;;;;5067985;28;20053;-68
2023/01/22 05:10:05;;;;;;;19.20;10.73;;;;;;;;;;5087424;28;20325;-68
2023/01/22 05:12:31;;;;;;;19.23;9.65;;;;;;;;;;5080969;28;20412;-67
2023/01/22 05:14:58;;;;;;;22.70;10.40;;;;;;;;;;5054433;28;20053;-69
2023/01/22 05:17:24;;;;;;;22.42;10.13;;;;;;;;;;5065593;28;20195;-67
2023/01/22 05:19:51;;;;;;;21.20;9.70;;;;;;;;;;5070370;28;20604;-68
2023/01/22 05:22:17;;;;;;;18.48;9.63;;;;;;;;;;5077075;28;20114;-65
2023/01/22 05:24:43;;;;;;;17.42;10.30;;;;;;;;;;5067073;28;20132;-67
2023/01/22 05:27:09;;;;;;;18.20;9.65;;;;;;;;;;5068374;28;20056;-69
2023/01/22 05:29:36;;;;;;;17.40;9.63;;;;;;;;;;5078954;28;20051;-68
2023/01/22 05:32:02;;;;;;;18.20;10.48;;;;;;;;;;5064309;28;20049;-66
2023/01/22 05:34:29;;;;;;;18.50;9.55;;;;;;;;;;5082303;28;20481;-66
2023/01/22 05:36:55;;;;;;;18.45;10.20;;;;;;;;;;5074039;28;20052;-69
2023/01/22 05:39:21;;;;;;;15.63;9.50;;;;;;;;;;5071129;28;20059;-67
2023/01/22 05:41:49;;;;;;;15.27;9.32;;;;;;;;;;5064960;28;20137;-67
2023/01/22 05:44:15;;;;;;;15.02;9.75;;;;;;;;;;5080626;28;20504;-67
2023/01/22 05:46:42;;;;;;;18.42;11.07;;;;;;;;;;5055417;28;20408;-68
2023/01/22 05:49:08;;;;;;;17.48;8.80;;;;;;;;;;5059328;28;20103;-67
2023/01/22 05:51:34;;;;;;;15.80;9.65;;;;;;;;;;5046295;28;20060;-68
2023/01/22 05:54:01;;;;;;;14.40;8.80;;;;;;;;;;5070060;28;20396;-69
2023/01/22 05:56:27;;;;;;;15.23;9.77;;;;;;;;;;5063584;28;20062;-67
2023/01/22 05:58:54;;;;;;;15.80;9.18;;;;;;;;;;5068694;28;20515;-68
2023/01/22 06:01:20;;;;;;;13.60;8.07;;;;;;;;;;5076836;28;20059;-68
2023/01/22 06:03:46;;;;;;;16.38;8.68;;;;;;;;;;5081090;28;20418;-67
2023/01/22 06:06:13;;;;;;;14.35;8.73;;;;;;;;;;5069480;28;20048;-68
2023/01/22 06:08:40;;;;;;;20.15;8.45;;;;;;;;;;5081648;28;20113;-69
2023/01/22 06:11:09;;;;;;;13.30;8.43;;;;;;;;;;5078300;28;20049;-68
2023/01/22 06:13:35;;;;;;;11.23;7.75;;;;;;;;;;5071312;28;20056;-66
2023/01/22 06:16:02;;;;;;;13.48;8.60;;;;;;;;;;5064122;28;20065;-69
2023/01/22 06:18:28;;;;;;;15.63;8.50;;;;;;;;;;5071320;28;20052;-68
2023/01/22 06:20:59;;;;;;;15.00;9.25;;;;;;;;;;5066745;28;20511;-68
2023/01/22 06:23:26;;;;;;;12.15;7.80;;;;;;;;;;5071669;28;20129;-68
2023/01/22 06:25:53;;;;;;;14.18;8.73;;;;;;;;;;5076247;28;20088;-67
2023/01/22 06:28:20;;;;;;;16.30;9.02;;;;;;;;;;5068153;28;20046;-69
2023/01/22 06:30:47;;;;;;;15.13;9.30;;;;;;;;;;5083057;28;20053;-68
2023/01/22 06:33:13;;;;;;;16.00;8.85;;;;;;;;;;5071721;28;20110;-68
2023/01/22 06:35:40;;;;;;;17.92;8.80;;;;;;;;;;5066590;28;20658;-68
2023/01/22 06:38:06;;;;;;;13.48;5.95;;;;;;;;;;5085789;28;20098;-67
2023/01/22 06:40:33;;;;;;;11.27;7.20;;;;;;;;;;5064725;28;20103;-68
2023/01/22 06:43:07;;;;;;;14.70;9.10;;;;;;;;;;5068698;28;20529;-68
2023/01/22 06:45:37;;;;;;;11.63;7.90;;;;;;;;;;5068009;28;20733;-68
2023/01/22 06:48:03;;;;;;;12.98;7.85;;;;;;;;;;5049681;28;20132;-68
2023/01/22 06:50:30;;;;;;;18.95;8.43;;;;;;;;;;5068209;28;20049;-67
2023/01/22 06:52:56;;;;;;;13.38;7.68;;;;;;;;;;5072363;28;20049;-69
2023/01/22 06:55:22;;;;;;;14.82;8.80;;;;;;;;;;5066254;28;20089;-68
2023/01/22 06:57:49;;;;;;;17.30;9.20;;;;;;;;;;5064881;28;20569;-69
2023/01/22 07:00:15;;;;;;;14.00;8.27;;;;;;;;;;5066463;28;20055;-69
2023/01/22 07:02:42;;;;;;;12.35;9.30;;;;;;;;;;5071365;28;20049;-68
2023/01/22 07:05:08;;;;;;;16.77;8.90;;;;;;;;;;5064330;28;20052;-67
2023/01/22 07:07:35;;;;;;;11.05;7.72;;;;;;;;;;5071011;28;20060;-68
2023/01/22 07:10:01;;;;;;;18.08;8.88;;;;;;;;;;5077979;28;20052;-68
2023/01/22 07:12:28;;;;;;;15.45;7.97;;;;;;;;;;5053830;28;20056;-68
2023/01/22 07:14:54;;;;;;;14.73;7.97;;;;;;;;;;5070957;28;20059;-67
2023/01/22 07:17:20;;;;;;;15.27;8.55;;;;;;;;;;5060383;28;20081;-68
2023/01/22 07:19:47;;;;;;;15.32;8.23;;;;;;;;;;5062687;28;20112;-66
2023/01/22 07:22:13;;;;;;;12.70;7.95;;;;;;;;;;5067251;28;20052;-68
2023/01/22 07:24:39;;;;;;;13.82;8.35;;;;;;;;;;5062159;28;20049;-69
2023/01/22 07:27:06;;;;;;;12.52;8.82;;;;;;;;;;5064438;28;20053;-67
2023/01/22 07:29:32;;;;;;;11.60;7.70;;;;;;;;;;5061928;28;20053;-69
2023/01/22 07:31:58;;;;;;;12.02;7.47;;;;;;;;;;5068408;28;20064;-69
2023/01/22 07:34:25;;;;;;;13.18;8.80;;;;;;;;;;5062016;28;20049;-66
2023/01/22 07:36:51;;;;;;;13.32;7.60;;;;;;;;;;5050913;28;20064;-69
2023/01/22 07:39:17;;;;;;;12.52;7.65;;;;;;;;;;5069400;28;20052;-68
2023/01/22 07:41:44;;;;;;;17.45;8.07;;;;;;;;;;5060204;28;20548;-67
2023/01/22 07:44:11;;;;;;;15.15;7.45;;;;;;;;;;5056389;28;20080;-69
2023/01/22 07:46:40;;;;;;;16.83;8.18;;;;;;;;;;5060782;28;20499;-69
2023/01/22 07:49:06;;;;;;;12.82;8.40;;;;;;;;;;5075267;28;20049;-68
2023/01/22 07:51:33;;;;;;;12.45;8.15;;;;;;;;;;5075037;28;20053;-68
2023/01/22 07:53:59;;;;;;;10.55;7.28;;;;;;;;;;5082142;28;20503;-69
2023/01/22 07:56:26;;;;;;;11.70;7.30;;;;;;;;;;5081311;28;20079;-68
2023/01/22 07:58:52;;;;;;;12.52;8.40;;;;;;;;;;5073222;28;20524;-69
2023/01/22 08:01:18;;;;;;;11.68;8.02;;;;;;;;;;5076652;28;20062;-68
2023/01/22 08:03:45;;;;;;;12.77;7.25;;;;;;;;;;5072373;28;20057;-68
2023/01/22 08:06:14;;;;;;;9.93;6.78;;;;;;;;;;5070921;28;20052;-68
2023/01/22 08:08:41;;;;;;;9.25;6.07;;;;;;;;;;5081657;28;20574;-68
2023/01/22 08:11:08;;;;;;;11.77;7.40;;;;;;;;;;5060889;28;20084;-68
2023/01/22 08:13:34;;;;;;;9.88;6.60;;;;;;;;;;5065954;28;20048;-69
2023/01/22 08:16:00;;;;;;;14.15;7.47;;;;;;;;;;5073790;28;20059;-69
2023/01/22 08:18:27;;;;;;;10.88;7.05;;;;;;;;;;5081047;28;20136;-69
2023/01/22 08:20:53;;;;;;;12.13;7.38;;;;;;;;;;5070114;28;20053;-68
2023/01/22 08:23:20;;;;;;;13.77;7.22;;;;;;;;;;5063333;28;20543;-67
2023/01/22 08:25:47;;;;;;;11.88;6.65;;;;;;;;;;5066348;28;20053;-68
2023/01/22 08:28:13;;;;;;;14.55;7.30;;;;;;;;;;5076636;28;20535;-69
2023/01/22 08:30:40;;;;;;;10.88;6.63;;;;;;;;;;5078834;28;20045;-68
2023/01/22 08:33:14;;;;;;;10.50;6.45;;;;;;;;;;5063564;28;20053;-66
2023/01/22 08:35:40;;;;;;;14.25;6.68;;;;;;;;;;5064766;28;20052;-69
2023/01/22 08:38:06;;;;;;;13.48;6.72;;;;;;;;;;5071432;28;20208;-68
2023/01/22 08:40:33;;;;;;;10.55;6.95;;;;;;;;;;5066726;28;20084;-68
2023/01/22 08:43:02;;;;;;;9.80;6.28;;;;;;;;;;5071445;28;20067;-67
2023/01/22 08:45:28;;;;;;;11.35;6.10;;;;;;;;;;5084485;28;20525;-69
2023/01/22 08:47:56;;;;;;;10.93;6.63;;;;;;;;;;5067174;28;20087;-67
2023/01/22 08:50:23;;;;;;;10.15;6.55;;;;;;;;;;5061749;28;20041;-69
2023/01/22 08:52:49;;;;;;;11.07;6.15;;;;;;;;;;5051669;28;20063;-68
2023/01/22 08:55:15;;;;;;;9.60;6.88;;;;;;;;;;5069373;28;20558;-69
2023/01/22 08:57:42;;;;;;;10.73;7.13;;;;;;;;;;5074922;28;20064;-69
2023/01/22 09:00:10;;;;;;;11.32;7.18;;;;;;;;;;5069474;28;20057;-68
2023/01/22 09:02:36;;;;;;;12.38;6.60;;;;;;;;;;5062905;28;20049;-66
2023/01/22 09:05:02;;;;;;;10.23;6.05;;;;;;;;;;5084344;28;20056;-69
2023/01/22 09:07:29;;;;;;;9.32;6.00;;;;;;;;;;5057448;28;20041;-69
2023/01/22 09:09:55;;;;;;;8.73;6.18;;;;;;;;;;5079071;28;20503;-68
2023/01/22 09:12:21;;;;;;;11.43;6.43;;;;;;;;;;5067086;28;20052;-68
2023/01/22 09:14:47;;;;;;;10.70;6.30;;;;;;;;;;5065710;28;20057;-66
2023/01/22 09:17:14;;;;;;;9.90;5.22;;;;;;;;;;5049367;28;20053;-66
2023/01/22 09:19:40;;;;;;;8.85;6.28;;;;;;;;;;5060180;28;20103;-66
2023/01/22 09:22:06;;;;;;;9.88;6.65;;;;;;;;;;5046312;28;20137;-68
2023/01/22 09:24:33;;;;;;;14.85;5.90;;;;;;;;;;5062442;28;20053;-67
2023/01/22 09:26:59;;;;;;;10.15;6.13;;;;;;;;;;5065733;28;20052;-68
2023/01/22 09:29:25;;;;;;;10.30;5.43;;;;;;;;;;5056988;28;20116;-66
2023/01/22 09:31:52;;;;;;;9.25;6.07;;;;;;;;;;5066198;28;20514;-69
2023/01/22 09:34:19;;;;;;;11.00;5.55;;;;;;;;;;5055794;28;20467;-69
2023/01/22 09:36:45;;;;;;;12.25;6.95;;;;;;;;;;5064061;28;20585;-70
2023/01/22 09:39:12;;;;;;;8.95;5.75;;;;;;;;;;5064385;28;20048;-69
2023/01/22 09:41:40;;;;;;;11.80;6.25;;;;;;;;;;5073411;28;20477;-69
2023/01/22 09:44:12;;;;;;;13.45;6.95;;;;;;;;;;5070067;28;20059;-69
2023/01/22 09:46:46;;;;;;;11.07;6.07;;;;;;;;;;5067290;28;20516;-70
2023/01/22 09:49:14;;;;;;;8.77;6.07;;;;;;;;;;5065884;28;20060;-70
2023/01/22 09:51:42;;;;;;;10.85;6.40;;;;;;;;;;5069176;28;20055;-69
2023/01/22 09:54:11;;;;;;;8.10;5.47;;;;;;;;;;5074813;28;20052;-70
2023/01/22 09:56:40;;;;;;;9.02;5.75;;;;;;;;;;5068888;28;20142;-67
2023/01/22 09:59:10;;;;;;;9.18;6.18;;;;;;;;;;5068340;28;20373;-67
2023/01/22 10:01:36;;;;;;;8.98;5.47;;;;;;;;;;5062459;28;20084;-70
2023/01/22 10:04:05;;;;;;;10.20;6.57;;;;;;;;;;5067037;28;20053;-70
2023/01/22 10:06:31;;;;;;;9.50;5.75;;;;;;;;;;5067519;28;20057;-70
2023/01/22 10:09:06;;;;;;;11.90;5.55;;;;;;;;;;5069378;28;20140;-70
2023/01/22 10:11:33;;;;;;;10.18;5.35;;;;;;;;;;5067382;28;20052;-70
2023/01/22 10:14:00;;;;;;;8.55;5.38;;;;;;;;;;5064356;28;20087;-69
2023/01/22 10:16:27;;;;;;;9.90;5.30;;;;;;;;;;5071176;28;20052;-68
2023/01/22 10:19:16;;;;;;;13.82;6.22;;;;;;;;;;5069370;28;20049;-67
2023/01/22 10:21:45;;;;;;;9.98;5.55;;;;;;;;;;5059505;28;20459;-69
2023/01/22 10:24:11;;;;;;;11.95;6.05;;;;;;;;;;5068140;28;20083;-70
2023/01/22 10:26:37;;;;;;;10.88;5.57;;;;;;;;;;5059380;28;20049;-69
2023/01/22 10:29:19;;;;;;;9.48;5.47;;;;;;;;;;5069041;28;20053;-68
2023/01/22 10:31:47;;;;;;;10.23;5.07;;;;;;;;;;5057325;28;20050;-70
2023/01/22 10:34:15;;;;;;;9.43;6.07;;;;;;;;;;5067875;28;20049;-68
2023/01/22 10:36:47;;;;;;;13.13;7.15;;;;;;;;;;5064323;28;20566;-69
2023/01/22 10:39:14;;;;;;;8.65;5.78;;;;;;;;;;5066843;28;20527;-70
2023/01/22 10:41:42;;;;;;;10.68;6.00;;;;;;;;;;5073880;28;20091;-66
2023/01/22 10:44:14;;;;;;;9.02;6.15;;;;;;;;;;5059950;28;20057;-71
2023/01/22 10:46:41;;;;;;;8.75;6.07;;;;;;;;;;5070771;28;20072;-69
2023/01/22 10:49:14;;;;;;;5.85;5.10;;;;;;;;;;5061220;28;20136;-69
2023/01/22 10:51:42;;;;;;;9.70;5.50;;;;;;;;;;5070283;28;20052;-68
2023/01/22 10:54:23;;;;;;;14.68;6.45;;;;;;;;;;5065285;28;20049;-68
2023/01/22 10:56:50;;;;;;;8.13;5.60;;;;;;;;;;5072061;28;20053;-69
2023/01/22 10:59:16;;;;;;;12.48;5.90;;;;;;;;;;5072587;28;20052;-70
2023/01/22 11:01:42;;;;;;;8.60;6.03;;;;;;;;;;5062942;28;20060;-70
2023/01/22 11:04:12;;;;;;;8.77;5.47;;;;;;;;;;5070347;28;20052;-69
2023/01/22 11:06:50;;;;;;;7.82;6.13;;;;;;;;;;5086551;28;20052;-69
2023/01/22 11:09:22;;;;;;;8.27;6.00;;;;;;;;;;5058733;28;20049;-70
2023/01/22 11:11:56;;;;;;;11.02;6.47;;;;;;;;;;5072174;28;20052;-70
2023/01/22 11:14:32;;;;;;;10.27;5.65;;;;;;;;;;5066982;28;20654;-70
2023/01/22 11:17:04;;;;;;;8.00;5.07;;;;;;;;;;5072591;28;20049;-69
2023/01/22 11:19:35;;;;;;;17.10;6.32;;;;;;;;;;5072244;28;20056;-69
2023/01/22 11:22:05;;;;;;;9.57;5.60;;;;;;;;;;5057575;28;20218;-69
2023/01/22 11:24:36;;;;;;;9.63;5.20;;;;;;;;;;5084582;28;20056;-69
2023/01/22 11:27:07;;;;;;;9.25;5.90;;;;;;;;;;5081769;28;20057;-68
2023/01/22 11:29:37;;;;;;;11.20;5.97;;;;;;;;;;5076685;28;20044;-69
2023/01/22 11:32:09;;;;;;;10.65;6.13;;;;;;;;;;5071477;28;20052;-69
2023/01/22 11:34:47;;;;;;;7.97;5.43;;;;;;;;;;5066169;28;20556;-67
2023/01/22 11:37:32;;;;;;;9.45;6.13;;;;;;;;;;5082695;28;20045;-70
2023/01/22 11:40:04;;;;;;;8.05;6.22;;;;;;;;;;5062866;28;20149;-69
2023/01/22 11:42:40;;;;;;;8.63;5.22;;;;;;;;;;5080212;28;20052;-69
2023/01/22 11:45:06;;;;;;;6.80;5.15;;;;;;;;;;5074602;28;20052;-69
2023/01/22 11:47:45;;;;;;;8.07;5.38;;;;;;;;;;5054598;28;20050;-69
2023/01/22 11:50:22;;;;;;;8.80;6.40;;;;;;;;;;5061028;28;20058;-69
2023/01/22 11:53:04;;;;;;;10.80;6.30;;;;;;;;;;5054145;28;20061;-69
2023/01/22 11:55:48;;;;;;;10.27;5.95;;;;;;;;;;5066274;28;20076;-70
2023/01/22 11:58:26;;;;;;;7.00;5.20;;;;;;;;;;5068538;28;20056;-70
2023/01/22 12:01:00;;;;;;;10.65;6.07;;;;;;;;;;5066344;28;20431;-69
2023/01/22 12:03:47;;;;;;;7.93;5.93;;;;;;;;;;5055044;28;20045;-70
2023/01/22 12:06:32;;;;;;;9.23;5.90;;;;;;;;;;5053350;28;20553;-68
2023/01/22 12:08:58;;;;;;;7.63;5.68;;;;;;;;;;5064186;28;20063;-71
2023/01/22 12:11:24;;;;;;;7.20;6.00;;;;;;;;;;5052321;28;20057;-67
2023/01/22 12:14:00;;;;;;;8.90;6.50;;;;;;;;;;5062284;28;20056;-69
2023/01/22 12:16:45;;;;;;;9.02;6.20;;;;;;;;;;5065350;28;20059;-72
2023/01/22 12:19:26;;;;;;;11.53;6.30;;;;;;;;;;5074799;28;20102;-70
2023/01/22 12:21:59;;;;;;;9.63;5.80;;;;;;;;;;5058212;28;20061;-71
2023/01/22 12:24:32;;;;;;;8.50;6.22;;;;;;;;;;5058241;28;20056;-71
2023/01/22 12:26:58;;;;;;;14.65;6.50;;;;;;;;;;5067443;28;20049;-72
2023/01/22 12:29:28;;;;;;;20.02;6.28;;;;;;;;;;5065991;28;20049;-68
2023/01/22 12:32:03;;;;;;;8.27;6.28;;;;;;;;;;5069736;28;20045;-72
2023/01/22 12:34:33;;;;;;;14.38;7.28;;;;;;;;;;5067745;28;20124;-71
2023/01/22 12:37:00;;;;;;;9.85;7.22;;;;;;;;;;5067303;28;20727;-71
2023/01/22 12:39:50;;;;;;;9.65;7.53;;;;;;;;;;5071281;28;20534;-68
2023/01/22 12:42:26;;;;;;;12.85;7.07;;;;;;;;;;5018480;28;20186;-68
2023/01/22 12:45:05;;;;;;;11.57;6.75;;;;;;;;;;5020870;28;20060;-68
2023/01/22 12:47:39;;;;;;;13.30;6.93;;;;;;;;;;5022997;28;20050;-73
2023/01/22 12:50:15;;;;;;;9.25;6.90;;;;;;;;;;5032294;28;20085;-68
2023/01/22 12:52:41;;;;;;;8.75;6.88;;;;;;;;;;5020896;28;20120;-72
2023/01/22 12:55:21;;;;;;;10.55;7.25;;;;;;;;;;5025758;28;20065;-70
2023/01/22 12:57:48;;;;;;;12.40;7.75;;;;;;;;;;5034492;28;20053;-71
2023/01/22 13:00:34;;;;;;;9.52;6.63;;;;;;;;;;5039322;28;20048;-72
2023/01/22 13:03:02;;;;;;;8.68;6.45;;;;;;;;;;5022846;28;20054;-73
2023/01/22 13:05:29;;;;;;;9.10;6.30;;;;;;;;;;5024237;28;20536;-73
2023/01/22 13:08:13;;;;;;;10.30;7.63;;;;;;;;;;5024358;28;20065;-73
2023/01/22 13:10:50;;;;;;;13.80;7.60;;;;;;;;;;5023923;28;20060;-68
2023/01/22 13:13:21;;;;;;;9.45;7.10;;;;;;;;;;5026352;28;20053;-73
2023/01/22 13:16:05;;;;;;;13.73;7.15;;;;;;;;;;5026974;28;20120;-69
2023/01/22 13:18:40;;;;;;;11.85;7.25;;;;;;;;;;5002311;28;20049;-71
2023/01/22 13:21:08;;;;;;;9.13;6.15;;;;;;;;;;5028982;28;20119;-70
2023/01/22 13:23:38;;;;;;;8.85;6.88;;;;;;;;;;5025389;28;20054;-72
2023/01/22 13:26:05;;;;;;;9.98;6.63;;;;;;;;;;5017380;28;20057;-71
2023/01/22 13:28:31;;;;;;;9.98;7.00;;;;;;;;;;5021409;28;22000;-70
2023/01/22 13:31:02;;;;;;;9.45;7.18;;;;;;;;;;5023439;28;20407;-71
2023/01/22 13:33:29;;;;;;;12.43;7.25;;;;;;;;;;5031502;28;20576;-72
2023/01/22 13:35:56;;;;;;;14.13;7.90;;;;;;;;;;5024051;28;20181;-72
2023/01/22 13:38:24;;;;;;;10.45;7.63;;;;;;;;;;5026215;28;20050;-72
2023/01/22 13:40:56;;;;;;;11.05;7.63;;;;;;;;;;5024007;28;20755;-72
2023/01/22 13:43:23;;;;;;;10.25;7.90;;;;;;;;;;5025312;28;20477;-69
2023/01/22 13:45:51;;;;;;;11.95;6.95;;;;;;;;;;5027895;28;20504;-72
2023/01/22 13:48:18;;;;;;;14.20;8.15;;;;;;;;;;5022218;28;20061;-68
2023/01/22 13:50:46;;;;;;;14.18;8.30;;;;;;;;;;5024767;28;20054;-71
2023/01/22 13:53:20;;;;;;;10.63;7.35;;;;;;;;;;5029061;28;20487;-72
2023/01/22 13:55:46;;;;;;;12.88;7.50;;;;;;;;;;5040739;28;20111;-69
2023/01/22 13:58:30;;;;;;;12.93;7.43;;;;;;;;;;5065067;28;20140;-70
2023/01/22 14:01:24;;;;;;;10.93;7.90;;;;;;;;;;5070783;28;20048;-70
2023/01/22 14:03:57;;;;;;;11.68;8.50;;;;;;;;;;5066637;28;20427;-72
2023/01/22 14:06:23;;;;;;;12.40;7.60;;;;;;;;;;5067924;28;20048;-70
2023/01/22 14:08:50;;;;;;;12.50;7.75;;;;;;;;;;5062877;28;20048;-71
2023/01/22 14:11:17;;;;;;;14.95;7.47;;;;;;;;;;5081495;28;20087;-67
2023/01/22 14:13:45;;;;;;;12.07;7.22;;;;;;;;;;5071229;28;20803;-72
2023/01/22 14:16:12;;;;;;;11.88;8.80;;;;;;;;;;5065140;28;20060;-72
2023/01/22 14:18:39;;;;;;;13.20;7.60;;;;;;;;;;5066790;28;20088;-73
2023/01/22 14:21:05;;;;;;;19.65;8.63;;;;;;;;;;5067843;28;20053;-70
2023/01/22 14:23:32;;;;;;;15.30;7.88;;;;;;;;;;5076322;28;20160;-72
2023/01/22 14:26:00;;;;;;;15.68;8.32;;;;;;;;;;5069895;28;20052;-70
2023/01/22 14:28:27;;;;;;;13.15;8.98;;;;;;;;;;5081568;28;20523;-71
2023/01/22 14:30:54;;;;;;;13.50;8.13;;;;;;;;;;5067690;28;20049;-71
2023/01/22 14:33:22;;;;;;;15.88;8.82;;;;;;;;;;5066594;28;20059;-71
2023/01/22 14:35:50;;;;;;;14.73;8.40;;;;;;;;;;5065733;28;20049;-70
2023/01/22 14:38:17;;;;;;;16.40;8.55;;;;;;;;;;5066687;28;20057;-70
2023/01/22 14:40:44;;;;;;;12.90;8.10;;;;;;;;;;5066556;28;20079;-71
2023/01/22 14:43:10;;;;;;;15.68;8.68;;;;;;;;;;5067131;28;20053;-70